Latest Weather Observations for Cape Borda

IDS60801

Issued at 2:31 am CST Wednesday 6 May 2015 (issued every 30 minutes, with the page automatically refreshed every 10 minutes)

About weather observations | Map of weather stations | Latest weather observations for SA | Other Formats
Station Details ID: 022823 Name: CAPE BORDA Lat: -35.75 Lon: 136.60 Height: 158.0 m
Data from the previous 72 hours. | See also: Recent months at Cape Borda
Date/Time
CST
Temp
°C
App
Temp
°C
Dew
Point
Rel
Hum
%
Delta-T
°C
Wind Press
QNH
hPa
Press
MSL
hPa
Rain
since 9 am
mm
Dir
 
Spd
km/h
Gust
km/h
Spd
kts
Gust
kts
06/02:30am 12.7 6.4 7.2 69 2.7 W 30 44 16 24 1015.1 - 1.4
06/02:00am 12.8 6.2 6.1 64 3.2 W 30 44 16 24 1015.1 - 1.4
06/01:30am 12.7 5.5 7.6 71 2.5 W 35 50 19 27 1015.2 - 1.4
06/01:00am 12.4 5.6 7.0 69 2.6 W 32 50 17 27 1015.3 - 1.4
06/12:40am 11.6 4.1 7.9 78 1.8 W 37 56 20 30 1015.3 - 1.2
06/12:30am 12.2 4.9 8.6 78 1.8 W 37 52 20 28 1015.2 - 1.2
06/12:00am 12.6 6.1 6.3 65 3.0 W 30 50 16 27 1015.0 1014.9 1.2
 
Date/Time
CST
Temp
°C
App
Temp
°C
Dew
Point
Rel
Hum
%
Delta-T
°C
Wind Press
QNH
hPa
Press
MSL
hPa
Rain
since 9 am
mm
Dir
 
Spd
km/h
Gust
km/h
Spd
kts
Gust
kts
05/11:30pm 11.6 4.2 8.4 81 1.6 WSW 37 56 20 30 1015.0 - 1.2
05/11:00pm 12.7 5.5 7.6 71 2.5 WSW 35 54 19 29 1014.9 - 1.0
05/10:30pm 12.4 5.5 6.6 68 2.8 WSW 32 54 17 29 1014.9 - 1.0
05/10:09pm 12.2 6.0 7.7 74 2.2 WSW 30 50 16 27 1014.9 - 1.0
05/10:00pm 12.1 5.4 7.4 73 2.3 WSW 32 48 17 26 1014.8 - 1.0
05/09:32pm 11.4 4.1 7.0 74 2.1 W 35 54 19 29 1014.7 - 1.0
05/09:30pm 11.3 3.5 6.7 73 2.2 W 37 54 20 29 1014.7 - 1.0
05/09:08pm 12.2 4.9 5.3 62 3.2 WSW 33 52 18 28 1014.4 - 1.0
05/09:00pm 12.0 3.9 5.4 64 3.1 WSW 37 52 20 28 1014.2 1014.1 1.0
05/08:47pm 11.6 4.9 7.3 75 2.1 W 32 50 17 27 1014.0 - 1.0
05/08:30pm 11.9 4.1 6.5 69 2.6 WSW 37 54 20 29 1013.9 - 1.0
05/08:08pm 11.9 4.9 6.9 71 2.4 WSW 33 69 18 37 1013.7 - 1.0
05/08:00pm 11.9 4.2 5.2 63 3.1 W 35 48 19 26 1013.7 - 1.0
05/07:30pm 11.2 3.8 6.6 73 2.2 W 35 56 19 30 1013.5 - 1.0
05/07:28pm 11.2 4.0 7.7 79 1.7 W 35 56 19 30 1013.5 - 1.0
05/07:25pm 11.3 3.0 7.6 78 1.8 W 41 56 22 30 1013.5 - 1.0
05/07:15pm 11.7 3.5 4.5 61 3.3 WSW 37 56 20 30 1013.2 - 1.0
05/07:00pm 11.7 2.6 4.2 60 3.4 WSW 41 57 22 31 1013.1 - 1.0
05/06:44pm 11.7 4.0 5.2 64 3.0 W 35 54 19 29 1012.8 - 1.0
05/06:30pm 11.6 2.8 3.8 59 3.5 WSW 39 56 21 30 1012.6 - 1.0
05/06:27pm 11.6 3.2 3.8 59 3.5 WSW 37 56 20 30 1012.6 - 1.0
05/06:14pm 11.1 2.6 5.3 67 2.7 W 39 50 21 27 1012.5 - 1.0
05/06:05pm 10.4 3.6 6.8 78 1.7 SW 32 52 17 28 1012.3 - 1.0
05/06:00pm 11.1 4.2 6.5 73 2.2 SW 32 44 17 24 1012.3 1012.3 1.0
05/05:30pm 10.4 2.8 5.7 72 2.2 W 35 54 19 29 1011.9 - 1.0
05/05:00pm 11.1 3.8 5.5 68 2.6 W 33 52 18 28 1011.6 - 1.0
05/04:56pm 11.2 3.9 5.4 67 2.7 W 33 52 18 28 1011.5 - 1.0
05/04:54pm 11.2 3.6 5.6 68 2.6 W 35 50 19 27 1011.6 - 1.0
05/04:31pm 11.4 2.6 5.6 67 2.7 WSW 41 61 22 33 1011.4 - 0.8
05/04:30pm 11.6 3.6 5.9 68 2.7 WSW 37 48 20 26 1011.4 - 0.8
05/04:12pm 11.8 2.8 4.6 61 3.3 W 41 59 22 32 1011.4 - 0.8
05/04:00pm 12.1 2.9 3.7 56 3.8 WSW 41 57 22 31 1011.2 - 0.8
05/03:30pm 12.4 3.2 3.5 54 4.0 W 41 63 22 34 1010.8 - 0.8
05/03:00pm 11.9 3.0 5.2 63 3.1 WSW 41 63 22 34 1010.4 1010.3 0.6
05/02:31pm 12.3 4.0 4.2 57 3.7 W 37 61 20 33 1009.9 - 0.6
05/02:30pm 12.4 4.2 4.6 59 3.6 W 37 52 20 28 1009.9 - 0.6
05/02:00pm 13.1 4.5 4.5 56 4.0 W 39 57 21 31 1009.6 - 0.4
05/01:31pm 13.2 3.9 5.1 58 3.8 W 43 61 23 33 1009.3 - 0.4
05/01:30pm 13.0 3.4 4.6 56 3.9 WSW 44 61 24 33 1009.2 - 0.4
05/01:00pm 11.5 1.7 5.3 65 2.9 WSW 46 78 25 42 1009.2 - 0.4
05/12:31pm 12.1 2.8 5.0 62 3.3 W 43 70 23 38 1009.1 - 0.0
05/12:30pm 12.8 3.5 4.9 58 3.7 W 43 59 23 32 1009.2 - 0.0
05/12:00pm 11.5 2.4 6.7 72 2.3 W 44 76 24 41 1009.2 1009.1 0.0
05/11:30am 12.5 3.0 4.7 59 3.6 WSW 44 63 24 34 1008.8 - 0.0
05/11:08am 12.6 3.6 4.6 58 3.7 WSW 41 61 22 33 1008.5 - 0.0
05/11:00am 11.4 2.4 4.6 63 3.1 WSW 41 56 22 30 1008.5 - 0.0
05/10:53am 11.8 2.5 5.1 63 3.1 WSW 43 56 23 30 1008.3 - 0.0
05/10:33am 12.7 3.2 3.7 54 4.1 W 43 61 23 33 1008.1 - 0.0
05/10:30am 12.5 3.0 3.7 55 4.0 W 43 57 23 31 1008.0 - 0.0
05/10:00am 11.7 2.5 5.3 65 3.0 WSW 43 67 23 36 1007.3 - 0.0
05/09:30am 11.8 2.0 3.3 56 3.8 W 44 70 24 38 1006.7 - 0.0
05/09:00am 11.0 1.3 4.1 62 3.1 W 44 67 24 36 1006.0 1006.0 6.2
05/08:30am 10.9 1.6 5.0 67 2.7 W 43 72 23 39 1005.1 - 6.0
05/08:02am 10.0 1.0 6.4 78 1.7 W 43 65 23 35 1004.2 - 6.0
05/08:00am 9.9 1.4 7.0 82 1.4 W 41 56 22 30 1004.2 - 6.0
05/07:30am 10.7 0.6 4.0 63 3.0 W 46 74 25 40 1003.3 - 5.4
05/07:00am 7.7 -3.7 5.0 83 1.2 W 54 80 29 43 1003.1 - 5.4
05/06:30am 11.0 -0.3 3.4 59 3.4 W 52 70 28 38 1002.5 - 4.2
05/06:00am 10.1 -2.8 6.1 76 1.9 W 63 93 34 50 1002.0 1001.9 4.0
05/05:57am 11.0 -1.9 3.9 61 3.2 W 61 93 33 50 1001.9 - 4.0
05/05:30am 9.8 -0.3 7.5 85 1.1 W 50 72 27 39 1001.9 - 4.0
05/05:00am 10.5 -1.0 6.3 75 2.0 W 56 85 30 46 1001.5 - 3.6
05/04:30am 11.4 -0.2 6.6 72 2.3 W 57 89 31 48 1001.0 - 3.6
05/04:00am 10.1 -2.4 5.8 74 2.0 W 61 82 33 44 1001.1 - 3.6
05/03:53am 10.9 -1.6 7.6 80 1.6 W 63 82 34 44 1001.1 - 3.4
05/03:52am 11.1 -2.1 6.5 73 2.2 W 65 82 35 44 1001.0 - 3.4
05/03:30am 11.6 3.7 8.0 78 1.8 W 39 72 21 39 1001.0 - 2.6
05/03:00am 12.1 0.7 4.8 61 3.4 WNW 54 74 29 40 1001.4 1001.3 2.6
05/02:30am 11.1 1.7 7.2 77 1.9 WNW 46 69 25 37 1001.9 - 2.6
05/02:00am 10.0 -0.7 8.2 88 0.9 W 54 80 29 43 1002.3 - 2.4
05/01:31am 10.4 0.3 9.0 91 0.7 WNW 52 102 28 55 1002.2 - 1.4
05/01:30am 10.8 1.2 9.4 91 0.7 WNW 50 78 27 42 1002.3 - 1.2
05/01:00am 12.8 1.4 6.6 66 3.0 W 56 83 30 45 1002.4 - 0.8
05/12:37am 12.8 3.5 9.3 79 1.8 WNW 48 91 26 49 1002.2 - 0.8
05/12:30am 12.8 3.6 7.8 71 2.5 WNW 46 67 25 36 1002.3 - 0.8
05/12:26am 12.5 3.8 8.5 76 2.0 WNW 44 63 24 34 1002.4 - 0.8
05/12:00am 12.1 3.0 10.0 87 1.1 WNW 48 65 26 35 1002.7 1002.6 0.8
 
Date/Time
CST
Temp
°C
App
Temp
°C
Dew
Point
Rel
Hum
%
Delta-T
°C
Wind Press
QNH
hPa
Press
MSL
hPa
Rain
since 9 am
mm
Dir
 
Spd
km/h
Gust
km/h
Spd
kts
Gust
kts
04/11:40pm 12.5 3.1 10.0 85 1.3 WNW 50 93 27 50 1002.5 - 0.2
04/11:30pm 14.4 5.2 8.1 66 3.2 WNW 46 69 25 37 1002.3 - 0.0
04/11:00pm 14.1 5.2 6.8 61 3.6 WNW 43 63 23 34 1002.6 - 0.0
04/10:30pm 13.8 3.3 8.9 72 2.5 W 54 80 29 43 1002.5 - 0.0
04/10:00pm 14.7 4.5 8.4 66 3.2 WNW 52 72 28 39 1002.0 - 0.0
04/09:30pm 14.8 4.7 10.5 75 2.3 WNW 54 82 29 44 1002.5 - 0.0
04/09:00pm 16.0 6.9 10.0 67 3.2 WNW 48 69 26 37 1002.0 1001.9 0.0
04/08:30pm 16.3 6.9 10.3 67 3.2 WNW 50 72 27 39 1002.0 - 0.0
04/08:01pm 16.8 8.5 11.5 71 2.9 WNW 46 65 25 35 1002.0 - 0.0
04/08:00pm 16.9 8.7 11.6 71 2.9 WNW 46 63 25 34 1002.0 - 0.0
04/07:30pm 17.4 8.5 11.8 69 3.1 NW 50 78 27 42 1001.7 - 0.0
04/07:18pm 17.5 10.4 13.5 77 2.3 NW 43 65 23 35 1001.6 - 0.0
04/07:00pm 17.4 10.9 14.1 81 1.9 NW 41 56 22 30 1001.7 - 0.0
04/06:30pm 17.4 10.7 14.5 83 1.7 NW 43 56 23 30 1001.4 - 0.0
04/06:14pm 17.5 10.6 14.4 82 1.8 NW 44 63 24 34 1001.2 - 0.0
04/06:00pm 17.6 10.1 14.0 79 2.1 NW 46 61 25 33 1001.1 1001.0 0.0
04/05:47pm 17.8 10.1 13.4 75 2.5 NW 46 65 25 35 1001.1 - 0.0
04/05:30pm 18.3 9.2 12.4 68 3.3 NW 52 67 28 36 1001.1 - 0.0
04/05:08pm 18.6 12.4 11.4 63 4.0 NNW 35 54 19 29 1001.1 - 0.0
04/05:00pm 18.5 12.8 11.9 65 3.7 NNW 33 48 18 26 1001.1 - 0.0
04/04:45pm 18.8 13.1 11.8 64 3.9 NNW 33 54 18 29 1000.9 - 0.0
04/04:30pm 18.8 13.3 12.4 66 3.6 NNW 33 46 18 25 1001.1 - 0.0
04/04:02pm 18.8 13.2 13.2 70 3.2 NNW 35 56 19 30 1001.3 - 0.0
04/04:00pm 18.9 13.7 13.3 70 3.2 NNW 33 50 18 27 1001.3 - 0.0
04/03:30pm 18.8 12.8 13.2 70 3.2 NW 37 50 20 27 1001.3 - 0.0
04/03:00pm 19.2 12.7 12.9 67 3.6 NW 39 54 21 29 1001.5 1001.4 0.0
04/02:30pm 19.7 13.3 11.9 60 4.4 NNW 37 52 20 28 1001.8 - 0.0
04/02:00pm 19.9 14.0 11.0 56 4.9 NNW 33 54 18 29 1002.1 - 0.0
04/01:48pm 20.3 14.3 10.2 52 5.5 NNW 32 52 17 28 1002.1 - 0.0
04/01:30pm 19.7 15.4 11.9 60 4.4 N 26 37 14 20 1002.3 - 0.0
04/01:00pm 20.4 15.0 10.8 54 5.3 N 30 43 16 23 1002.7 - 0.0
04/12:30pm 19.4 14.9 12.5 64 3.9 N 28 35 15 19 1003.2 - 0.0
04/12:00pm 18.7 13.0 11.3 62 4.1 N 32 43 17 23 1003.7 1003.6 0.0
04/11:36am 18.4 13.1 11.3 63 3.9 N 30 50 16 27 1004.2 - 0.0
04/11:30am 18.5 13.6 11.4 63 3.9 N 28 39 15 21 1004.3 - 0.0
04/11:10am 17.9 12.1 11.6 66 3.5 N 33 52 18 28 1004.4 - 0.0
04/11:00am 18.2 11.5 11.1 63 3.9 N 37 52 20 28 1004.3 - 0.0
04/10:30am 18.4 11.2 10.7 61 4.2 N 39 56 21 30 1004.6 - 0.0
04/10:28am 18.4 11.6 10.5 60 4.3 N 37 56 20 30 1004.6 - 0.0
04/10:19am 18.2 11.3 10.4 60 4.2 N 37 48 20 26 1004.8 - 0.0
04/10:00am 17.7 12.9 11.5 67 3.4 NE 28 41 15 22 1005.4 - 0.0
04/09:30am 17.3 12.5 11.5 68 3.2 NE 28 43 15 23 1005.8 - 0.0
04/09:00am 17.4 11.7 11.2 67 3.4 NE 32 43 17 23 1006.1 1006.1 0.0
04/08:33am 17.1 12.5 12.3 73 2.7 NE 28 46 15 25 1006.3 - 0.0
04/08:30am 17.1 12.2 12.4 74 2.6 NE 30 46 16 25 1006.3 - 0.0
04/08:00am 16.2 11.1 12.0 76 2.3 ENE 30 43 16 23 1006.5 - 0.0
04/07:30am 15.9 11.3 12.3 79 2.0 ENE 28 37 15 20 1006.9 - 0.0
04/07:00am 16.1 11.4 12.1 77 2.2 NE 28 37 15 20 1007.5 - 0.0
04/06:30am 16.0 11.2 11.6 75 2.4 ENE 28 37 15 20 1007.7 - 0.0
04/06:00am 15.9 11.6 12.1 78 2.1 NE 26 35 14 19 1008.3 1008.2 0.0
04/05:30am 15.5 11.3 12.4 82 1.7 ENE 26 33 14 18 1008.7 - 0.0
04/05:00am 15.3 11.4 12.0 81 1.8 NE 24 33 13 18 1009.2 - 0.0
04/04:30am 15.3 11.3 11.8 79 1.9 NE 24 33 13 18 1009.5 - 0.0
04/04:00am 15.4 11.6 11.3 76 2.2 NE 22 30 12 16 1009.7 - 0.0
04/03:30am 15.6 11.8 11.2 75 2.4 NE 22 32 12 17 1010.3 - 0.0
04/03:00am 15.7 11.3 10.4 71 2.8 NE 24 35 13 19 1011.1 1011.1 0.0
04/02:30am 15.2 11.0 11.1 76 2.2 NE 24 32 13 17 1011.6 - 0.0
04/02:00am 15.1 11.0 11.4 78 2.0 NE 24 33 13 18 1012.3 - 0.0
04/01:30am 15.1 11.4 11.4 78 2.0 NE 22 30 12 16 1012.7 - 0.0
04/01:00am 14.7 10.6 11.4 80 1.8 NE 24 32 13 17 1013.0 - 0.0
04/12:30am 14.8 11.1 11.5 80 1.8 NE 22 32 12 17 1013.2 - 0.0
04/12:00am 14.7 11.1 11.9 83 1.5 NE 22 32 12 17 1013.4 1013.4 0.0
 
Date/Time
CST
Temp
°C
App
Temp
°C
Dew
Point
Rel
Hum
%
Delta-T
°C
Wind Press
QNH
hPa
Press
MSL
hPa
Rain
since 9 am
mm
Dir
 
Spd
km/h
Gust
km/h
Spd
kts
Gust
kts
03/11:30pm 14.6 10.5 11.4 81 1.7 NE 24 35 13 19 1013.8 - 0.0
03/11:00pm 14.5 10.6 12.1 85 1.3 NE 24 33 13 18 1013.9 - 0.0
03/10:30pm 14.6 10.5 11.6 82 1.6 NE 24 35 13 19 1013.7 - 0.0
03/10:00pm 14.5 9.7 10.3 76 2.2 NE 26 35 14 19 1014.4 - 0.0
03/09:30pm 14.5 10.7 11.1 80 1.8 NE 22 30 12 16 1014.8 - 0.0
03/09:00pm 14.5 11.1 11.1 80 1.8 NNE 20 32 11 17 1015.2 1015.1 0.0
03/08:30pm 14.2 10.5 10.2 77 2.1 NNE 20 32 11 17 1015.3 - 0.0
03/08:00pm 14.3 10.3 10.5 78 2.0 NNE 22 32 12 17 1015.5 - 0.0
03/07:30pm 14.2 10.9 11.0 81 1.7 NNE 19 24 10 13 1015.6 - 0.0
03/07:00pm 14.5 11.6 10.9 79 1.9 NNE 17 24 9 13 1015.6 - 0.0
03/06:30pm 14.5 11.6 11.1 80 1.8 NNE 17 24 9 13 1015.5 - 0.0
03/06:00pm 14.5 11.6 10.9 79 1.9 N 17 22 9 12 1015.7 1015.6 0.0
03/05:30pm 14.6 11.8 11.2 80 1.8 NNE 17 24 9 13 1015.7 - 0.0
03/05:00pm 14.8 12.5 11.7 82 1.7 N 15 20 8 11 1015.9 - 0.0
03/04:30pm 15.0 13.3 11.1 77 2.1 N 11 15 6 8 1016.4 - 0.0
03/04:00pm 15.3 13.3 11.4 77 2.1 N 13 19 7 10 1016.6 - 0.0
03/03:30pm 15.5 13.5 11.6 77 2.1 N 13 19 7 10 1016.6 - 0.0
03/03:00pm 16.9 14.7 12.2 74 2.6 N 15 20 8 11 1016.9 1016.9 0.0
03/02:30pm 15.9 13.5 11.5 75 2.4 N 15 20 8 11 1017.0 - 0.0
03/02:00pm 16.0 13.3 11.6 75 2.4 NNW 17 20 9 11 1017.2 - 0.0
03/01:30pm 17.3 15.0 13.0 76 2.4 N 17 20 9 11 1017.5 - 0.0
03/01:00pm 15.7 14.0 12.6 82 1.7 NNW 13 19 7 10 1018.1 - 0.0
03/12:30pm 15.7 13.7 12.6 82 1.7 NNW 15 19 8 10 1018.6 - 0.0
03/12:00pm 15.3 13.0 11.8 79 1.9 N 15 20 8 11 1019.0 1019.0 0.0
03/11:30am 14.9 11.2 10.3 74 2.4 NNW 20 26 11 14 1019.4 - 0.0
03/11:00am 13.5 10.5 12.4 93 0.6 NNW 20 30 11 16 1019.6 - 0.0
03/10:30am 14.6 12.9 12.6 88 1.1 N 13 19 7 10 1019.7 - 0.0
03/10:00am 14.6 13.2 13.5 93 0.6 N 13 19 7 10 1019.9 - 0.0
03/09:30am 14.1 13.4 13.2 94 0.5 NW 9 15 5 8 1020.0 - 0.0
03/09:00am 14.0 13.4 13.5 97 0.3 WNW 9 13 5 7 1020.1 1020.1 6.0
03/08:30am 14.1 12.4 12.3 89 1.0 N 13 17 7 9 1020.1 - 6.0
03/08:00am 13.6 12.2 12.3 92 0.7 N 11 15 6 8 1019.7 - 6.0
03/07:30am 13.3 11.9 12.2 93 0.6 N 11 15 6 8 1019.5 - 6.0
03/07:00am 12.7 11.5 11.6 93 0.6 NNE 9 13 5 7 1019.4 - 6.0
03/06:30am 13.0 12.4 12.3 95 0.4 N 7 11 4 6 1019.4 - 6.0
03/06:00am 13.0 12.1 12.6 97 0.2 N 9 17 5 9 1019.1 1019.1 5.8
03/05:30am 12.9 12.1 11.8 93 0.6 E 7 11 4 6 1018.9 - 0.2
03/05:00am 11.9 10.9 11.1 95 0.4 ESE 7 9 4 5 1018.8 - 0.0
03/04:30am 11.4 9.5 10.6 95 0.4 ESE 11 13 6 7 1018.7 - 0.0
03/04:00am 11.3 9.1 10.7 96 0.3 SSW 13 13 7 7 1018.7 - 0.0
03/03:30am 11.3 9.8 10.7 96 0.3 SSW 9 11 5 6 1018.8 - 0.0
03/03:00am 11.4 10.3 10.6 95 0.4 SSW 7 9 4 5 1018.9 1018.9 0.0

Other Formats:

Comma delimited format used in spreadsheet applications
http://www.bom.gov.au/fwo/IDS60801/IDS60801.95805.axf

JavaScript Object Notation format (JSON) in row-major order
http://www.bom.gov.au/fwo/IDS60801/IDS60801.95805.json